Time;durP1;ratioP1;P1;durP2;ratioP2;P2;SDS_P1;SDS_P2;PMS_P1;PMS_P2;Temp;Humidity;BMP_temperature;BMP_pressure;BME280_temperature;BME280_humidity;BME280_pressure;Samples;Min_cycle;Max_cycle;Signal;HPM_P1;HPM_P2
2022/09/13 00:01:44;;;;;;;2.08;0.40;;;;;;;;;;4976017;28;20038;-76
2022/09/13 00:04:10;;;;;;;1.15;0.40;;;;;;;;;;4975249;28;20523;-76
2022/09/13 00:06:36;;;;;;;2.30;0.52;;;;;;;;;;4978461;28;20039;-77
2022/09/13 00:09:02;;;;;;;4.32;0.40;;;;;;;;;;4978072;28;20125;-76
2022/09/13 00:11:30;;;;;;;1.75;0.35;;;;;;;;;;4976617;28;20042;-76
2022/09/13 00:13:56;;;;;;;2.58;0.47;;;;;;;;;;4976946;28;20160;-76
2022/09/13 00:16:24;;;;;;;7.13;0.93;;;;;;;;;;4976129;28;20038;-76
2022/09/13 00:18:50;;;;;;;4.30;0.63;;;;;;;;;;4977695;28;20427;-76
2022/09/13 00:21:17;;;;;;;3.28;0.60;;;;;;;;;;4978350;28;20080;-76
2022/09/13 00:23:45;;;;;;;2.28;0.60;;;;;;;;;;4976031;28;20038;-76
2022/09/13 00:26:12;;;;;;;7.97;0.70;;;;;;;;;;4974590;28;20101;-76
2022/09/13 00:28:38;;;;;;;6.18;0.75;;;;;;;;;;4978342;28;20532;-76
2022/09/13 00:31:05;;;;;;;4.75;0.57;;;;;;;;;;4974048;28;20177;-76
2022/09/13 00:33:31;;;;;;;3.28;0.90;;;;;;;;;;4978288;28;20038;-76
2022/09/13 00:35:58;;;;;;;1.35;0.43;;;;;;;;;;4973441;28;20043;-77
2022/09/13 00:38:24;;;;;;;3.15;0.50;;;;;;;;;;4979322;28;20043;-78
2022/09/13 00:40:50;;;;;;;3.10;0.50;;;;;;;;;;4976258;28;20040;-78
2022/09/13 00:43:20;;;;;;;5.18;0.38;;;;;;;;;;4974749;28;20039;-78
2022/09/13 00:45:46;;;;;;;2.33;0.55;;;;;;;;;;4980064;28;20400;-78
2022/09/13 00:48:19;;;;;;;2.38;0.50;;;;;;;;;;5001676;28;20038;-77
2022/09/13 00:50:49;;;;;;;5.53;0.60;;;;;;;;;;4999532;28;20046;-77
2022/09/13 00:53:30;;;;;;;5.68;0.60;;;;;;;;;;4997510;28;20041;-78
2022/09/13 00:56:02;;;;;;;6.35;0.82;;;;;;;;;;5003005;28;20082;-77
2022/09/13 00:58:34;;;;;;;4.95;0.50;;;;;;;;;;4992076;28;20057;-78
2022/09/13 01:01:01;;;;;;;3.25;0.50;;;;;;;;;;4992727;28;20049;-78
2022/09/13 01:03:29;;;;;;;3.38;0.60;;;;;;;;;;4992669;28;20538;-77
2022/09/13 01:06:01;;;;;;;3.38;0.50;;;;;;;;;;4992481;28;20048;-77
2022/09/13 01:08:30;;;;;;;2.92;0.50;;;;;;;;;;4991345;28;20030;-78
2022/09/13 01:10:58;;;;;;;4.13;0.77;;;;;;;;;;4998786;28;20058;-77
2022/09/13 01:13:26;;;;;;;6.80;0.93;;;;;;;;;;4994972;28;20034;-78
2022/09/13 01:15:52;;;;;;;2.17;0.57;;;;;;;;;;4995220;28;20140;-77
2022/09/13 01:18:18;;;;;;;3.80;0.43;;;;;;;;;;4997705;28;20029;-77
2022/09/13 01:21:08;;;;;;;5.15;0.70;;;;;;;;;;4993046;28;20088;-78
2022/09/13 01:23:40;;;;;;;6.43;0.63;;;;;;;;;;4995794;28;20030;-77
2022/09/13 01:26:32;;;;;;;4.82;0.65;;;;;;;;;;4988039;28;20561;-77
2022/09/13 01:28:58;;;;;;;;;;;;;;;;;;4970341;28;20407;-77
2022/09/13 01:31:34;;;;;;;4.95;0.50;;;;;;;;;;4992551;28;19917;-77
2022/09/13 01:34:14;;;;;;;11.23;1.42;;;;;;;;;;4995341;28;20062;-78
2022/09/13 01:36:48;;;;;;;6.45;0.90;;;;;;;;;;4993755;28;20499;-78
2022/09/13 01:39:19;;;;;;;6.57;0.70;;;;;;;;;;4992226;28;20030;-78
2022/09/13 01:41:54;;;;;;;4.95;0.80;;;;;;;;;;4992757;28;20439;-77
2022/09/13 01:44:24;;;;;;;6.45;0.77;;;;;;;;;;4991820;28;20089;-78
2022/09/13 01:46:59;;;;;;;5.00;0.60;;;;;;;;;;4991750;28;20058;-77
2022/09/13 01:49:31;;;;;;;2.88;0.50;;;;;;;;;;4992640;28;20430;-78
2022/09/13 01:51:57;;;;;;;;;;;;;;;;;;4992894;28;20038;-78
2022/09/13 01:54:43;;;;;;;6.88;0.90;;;;;;;;;;4993374;28;19913;-78
2022/09/13 01:57:13;;;;;;;3.20;0.70;;;;;;;;;;4993065;28;20049;-77
2022/09/13 01:59:45;;;;;;;4.30;0.80;;;;;;;;;;4989534;28;20100;-77
2022/09/13 02:02:18;;;;;;;4.07;1.10;;;;;;;;;;4994051;28;20070;-77
2022/09/13 02:04:48;;;;;;;3.67;0.82;;;;;;;;;;4989035;28;20088;-77
2022/09/13 02:07:17;;;;;;;3.85;0.65;;;;;;;;;;4993886;28;20035;-78
2022/09/13 02:09:49;;;;;;;3.72;0.70;;;;;;;;;;4996692;28;20030;-77
2022/09/13 02:12:15;;;;;;;;;;;;;;;;;;4993792;28;20026;-77
2022/09/13 02:14:42;;;;;;;4.20;0.63;;;;;;;;;;4996615;28;19937;-78
2022/09/13 02:17:29;;;;;;;6.13;0.73;;;;;;;;;;4990269;28;20483;-78
2022/09/13 02:19:57;;;;;;;3.75;0.50;;;;;;;;;;4989719;28;20035;-77
2022/09/13 02:22:26;;;;;;;1.52;0.22;;;;;;;;;;4993621;28;20054;-77
2022/09/13 02:24:55;;;;;;;2.20;0.30;;;;;;;;;;4989079;28;20093;-78
2022/09/13 02:27:24;;;;;;;2.92;0.40;;;;;;;;;;4995598;28;20100;-77
2022/09/13 02:29:53;;;;;;;2.35;0.50;;;;;;;;;;4998068;28;20038;-77
2022/09/13 02:32:24;;;;;;;4.57;0.50;;;;;;;;;;4989118;28;20419;-77
2022/09/13 02:35:02;;;;;;;4.20;0.65;;;;;;;;;;4991315;28;20034;-78
2022/09/13 02:37:29;;;;;;;6.00;0.93;;;;;;;;;;4993048;28;20387;-78
2022/09/13 02:39:58;;;;;;;6.13;0.95;;;;;;;;;;4992055;28;20048;-78
2022/09/13 02:42:36;;;;;;;4.22;0.68;;;;;;;;;;4992757;28;20046;-77
2022/09/13 02:45:05;;;;;;;4.63;0.47;;;;;;;;;;4995480;28;20038;-77
2022/09/13 02:47:50;;;;;;;4.57;0.90;;;;;;;;;;4996014;28;20050;-77
2022/09/13 02:50:35;;;;;;;7.68;1.00;;;;;;;;;;4992473;28;20034;-78
2022/09/13 02:53:20;;;;;;;2.45;0.57;;;;;;;;;;4993363;28;20198;-78
2022/09/13 02:55:58;;;;;;;6.60;0.70;;;;;;;;;;4998538;28;20081;-77
2022/09/13 02:58:34;;;;;;;2.63;0.47;;;;;;;;;;4996944;28;20030;-77
2022/09/13 03:01:00;;;;;;;5.97;1.10;;;;;;;;;;4982588;28;20506;-78
2022/09/13 03:03:26;;;;;;;6.68;0.82;;;;;;;;;;5000274;28;20030;-77
2022/09/13 03:05:53;;;;;;;5.10;0.65;;;;;;;;;;4999929;28;20452;-77
2022/09/13 03:08:21;;;;;;;7.75;0.77;;;;;;;;;;4991646;28;20093;-77
2022/09/13 03:11:06;;;;;;;2.50;0.40;;;;;;;;;;4997508;28;20073;-77
2022/09/13 03:13:51;;;;;;;4.13;1.02;;;;;;;;;;4998597;28;20381;-78
2022/09/13 03:16:47;;;;;;;8.02;0.75;;;;;;;;;;5002707;28;20046;-78
2022/09/13 03:19:23;;;;;;;5.55;0.90;;;;;;;;;;4918339;28;20044;-77
2022/09/13 03:21:58;;;;;;;4.07;1.02;;;;;;;;;;4999483;28;20033;-77
2022/09/13 03:24:30;;;;;;;4.07;0.70;;;;;;;;;;4999784;28;20125;-77
2022/09/13 03:27:14;;;;;;;4.32;0.70;;;;;;;;;;4998528;28;20042;-78
2022/09/13 03:29:49;;;;;;;2.05;0.50;;;;;;;;;;4998064;28;20460;-77
2022/09/13 03:32:24;;;;;;;3.40;0.50;;;;;;;;;;4995767;28;20030;-78
2022/09/13 03:34:59;;;;;;;4.15;0.50;;;;;;;;;;5004476;28;20038;-77
2022/09/13 03:37:25;;;;;;;6.07;0.40;;;;;;;;;;4997453;28;20072;-77
2022/09/13 03:39:53;;;;;;;2.65;0.47;;;;;;;;;;5001109;28;20029;-77
2022/09/13 03:42:23;;;;;;;4.13;0.70;;;;;;;;;;5001901;28;21061;-77
2022/09/13 03:44:50;;;;;;;2.45;0.47;;;;;;;;;;4999043;28;20083;-77
2022/09/13 03:47:16;;;;;;;4.35;0.57;;;;;;;;;;5000019;28;20050;-77
2022/09/13 03:49:43;;;;;;;2.30;0.50;;;;;;;;;;4998991;28;20038;-78
2022/09/13 03:52:09;;;;;;;5.72;0.70;;;;;;;;;;5002201;28;20026;-77
2022/09/13 03:54:37;;;;;;;3.63;0.55;;;;;;;;;;5001611;28;20475;-77
2022/09/13 03:57:06;;;;;;;5.13;0.55;;;;;;;;;;4995971;28;20038;-77
2022/09/13 03:59:32;;;;;;;8.95;0.60;;;;;;;;;;5000668;28;20026;-77
2022/09/13 04:01:59;;;;;;;4.43;0.70;;;;;;;;;;5003026;28;20040;-77
2022/09/13 04:04:25;;;;;;;8.13;1.00;;;;;;;;;;4994445;28;20598;-77
2022/09/13 04:06:51;;;;;;;4.78;0.80;;;;;;;;;;4999937;28;20038;-77
2022/09/13 04:09:17;;;;;;;6.63;0.80;;;;;;;;;;4993521;28;20113;-77
2022/09/13 04:11:43;;;;;;;6.22;0.70;;;;;;;;;;4998055;28;20464;-77
2022/09/13 04:14:09;;;;;;;3.90;0.60;;;;;;;;;;4992411;28;20036;-77
2022/09/13 04:16:35;;;;;;;4.15;0.70;;;;;;;;;;4993786;28;20034;-78
2022/09/13 04:19:01;;;;;;;7.00;0.95;;;;;;;;;;4993724;28;20053;-77
2022/09/13 04:21:27;;;;;;;4.07;0.70;;;;;;;;;;4999594;28;20375;-77
2022/09/13 04:23:53;;;;;;;5.15;0.60;;;;;;;;;;4994595;28;20033;-77
2022/09/13 04:26:19;;;;;;;3.97;0.50;;;;;;;;;;4998565;28;20379;-78
2022/09/13 04:28:45;;;;;;;2.75;0.60;;;;;;;;;;4997861;28;20501;-77
2022/09/13 04:31:11;;;;;;;9.23;1.77;;;;;;;;;;4998265;28;20042;-77
2022/09/13 04:33:37;;;;;;;3.53;0.52;;;;;;;;;;4993398;28;20030;-78
2022/09/13 04:36:03;;;;;;;5.97;0.50;;;;;;;;;;5001922;28;20104;-77
2022/09/13 04:38:30;;;;;;;3.13;0.50;;;;;;;;;;4990920;28;20022;-78
2022/09/13 04:40:57;;;;;;;2.83;0.90;;;;;;;;;;4995536;28;20387;-77
2022/09/13 04:43:24;;;;;;;4.28;0.70;;;;;;;;;;4992935;28;20414;-77
2022/09/13 04:45:50;;;;;;;3.92;1.00;;;;;;;;;;4998652;28;20490;-77
2022/09/13 04:48:16;;;;;;;3.80;0.70;;;;;;;;;;4982513;28;20025;-78
2022/09/13 04:50:42;;;;;;;3.65;0.70;;;;;;;;;;4996660;28;20034;-78
2022/09/13 04:53:08;;;;;;;4.28;0.90;;;;;;;;;;4994131;28;20030;-77
2022/09/13 04:55:35;;;;;;;5.68;1.15;;;;;;;;;;4996509;28;20069;-77
2022/09/13 04:58:01;;;;;;;5.63;0.80;;;;;;;;;;4994319;28;20427;-77
2022/09/13 05:00:27;;;;;;;8.13;1.20;;;;;;;;;;4997133;28;20037;-78
2022/09/13 05:02:56;;;;;;;4.70;0.90;;;;;;;;;;4995391;28;20578;-77
2022/09/13 05:05:24;;;;;;;6.85;0.90;;;;;;;;;;4998969;28;20086;-78
2022/09/13 05:07:51;;;;;;;3.70;0.90;;;;;;;;;;4996585;28;20567;-77
2022/09/13 05:10:17;;;;;;;9.18;1.35;;;;;;;;;;4991144;28;20066;-78
2022/09/13 05:12:43;;;;;;;5.28;0.80;;;;;;;;;;4997392;28;20376;-77
2022/09/13 05:15:11;;;;;;;8.45;1.15;;;;;;;;;;4992608;28;20029;-78
2022/09/13 05:17:37;;;;;;;6.50;0.90;;;;;;;;;;4994048;28;20026;-77
2022/09/13 05:20:04;;;;;;;5.35;0.90;;;;;;;;;;4995278;28;20042;-77
2022/09/13 05:22:30;;;;;;;6.68;1.02;;;;;;;;;;4991236;28;20484;-77
2022/09/13 05:24:56;;;;;;;8.55;0.82;;;;;;;;;;4999799;28;20073;-77
2022/09/13 05:27:22;;;;;;;6.20;1.08;;;;;;;;;;4997614;28;20515;-78
2022/09/13 05:29:48;;;;;;;6.00;1.10;;;;;;;;;;4998084;28;20108;-77
2022/09/13 05:32:14;;;;;;;8.48;0.93;;;;;;;;;;4999699;28;20404;-77
2022/09/13 05:34:40;;;;;;;4.15;0.90;;;;;;;;;;4999620;28;20061;-75
2022/09/13 05:37:06;;;;;;;6.25;1.05;;;;;;;;;;4996016;28;20105;-77
2022/09/13 05:39:32;;;;;;;6.75;1.00;;;;;;;;;;4997326;28;20384;-77
2022/09/13 05:41:58;;;;;;;6.85;1.13;;;;;;;;;;4995100;28;20095;-77
2022/09/13 05:44:24;;;;;;;7.75;0.82;;;;;;;;;;4994239;28;20049;-78
2022/09/13 05:46:50;;;;;;;6.10;1.13;;;;;;;;;;5000815;28;20141;-77
2022/09/13 05:49:16;;;;;;;4.90;1.35;;;;;;;;;;4991289;28;20076;-77
2022/09/13 05:51:42;;;;;;;5.75;1.00;;;;;;;;;;4990927;28;20036;-78
2022/09/13 05:54:11;;;;;;;6.07;1.27;;;;;;;;;;4988808;28;20168;-77
2022/09/13 05:56:37;;;;;;;8.35;1.45;;;;;;;;;;4989766;28;20026;-77
2022/09/13 05:59:03;;;;;;;7.60;1.40;;;;;;;;;;4993551;28;20036;-77
2022/09/13 06:01:29;;;;;;;6.00;0.98;;;;;;;;;;4995204;28;20048;-78
2022/09/13 06:03:56;;;;;;;4.35;0.90;;;;;;;;;;4993211;28;20037;-78
2022/09/13 06:06:22;;;;;;;8.15;1.08;;;;;;;;;;4992691;28;20046;-77
2022/09/13 06:08:51;;;;;;;5.75;1.10;;;;;;;;;;4982236;28;20455;-78
2022/09/13 06:11:17;;;;;;;16.25;1.25;;;;;;;;;;4992860;28;20069;-78
2022/09/13 06:13:43;;;;;;;5.80;1.58;;;;;;;;;;4995276;28;20484;-77
2022/09/13 06:16:11;;;;;;;12.13;1.50;;;;;;;;;;4992424;28;20061;-77
2022/09/13 06:18:37;;;;;;;8.80;1.40;;;;;;;;;;4990683;28;20033;-77
2022/09/13 06:21:04;;;;;;;10.20;1.80;;;;;;;;;;5000811;28;20088;-77
2022/09/13 06:23:30;;;;;;;6.55;1.15;;;;;;;;;;4999034;28;20040;-77
2022/09/13 06:26:01;;;;;;;9.88;1.50;;;;;;;;;;4996786;28;20071;-77
2022/09/13 06:28:27;;;;;;;6.47;1.17;;;;;;;;;;4999006;28;20319;-78
2022/09/13 06:30:58;;;;;;;7.28;1.67;;;;;;;;;;5001620;28;20150;-78
2022/09/13 06:33:24;;;;;;;7.68;0.80;;;;;;;;;;4997775;28;20539;-77
2022/09/13 06:35:50;;;;;;;7.75;1.25;;;;;;;;;;5002283;28;20148;-77
2022/09/13 06:38:16;;;;;;;8.23;1.10;;;;;;;;;;5003826;28;20030;-77
2022/09/13 06:40:43;;;;;;;5.55;0.95;;;;;;;;;;5003323;28;20112;-77
2022/09/13 06:43:10;;;;;;;8.65;1.13;;;;;;;;;;5000730;28;20029;-77
2022/09/13 06:45:36;;;;;;;6.28;1.23;;;;;;;;;;4982673;28;20042;-77
2022/09/13 06:48:02;;;;;;;11.45;1.83;;;;;;;;;;4998392;28;20034;-78
2022/09/13 06:50:28;;;;;;;6.22;1.30;;;;;;;;;;5002188;28;20621;-77
2022/09/13 06:52:57;;;;;;;9.50;1.73;;;;;;;;;;5001309;28;20044;-77
2022/09/13 06:55:23;;;;;;;5.25;1.42;;;;;;;;;;5003666;28;20120;-77
2022/09/13 06:57:49;;;;;;;10.05;2.13;;;;;;;;;;5002061;28;20602;-77
2022/09/13 07:00:16;;;;;;;12.23;1.90;;;;;;;;;;4988093;28;20046;-77
2022/09/13 07:02:42;;;;;;;11.35;2.08;;;;;;;;;;5002991;28;20229;-77
2022/09/13 07:05:09;;;;;;;12.05;1.80;;;;;;;;;;5003422;28;20038;-77
2022/09/13 07:07:35;;;;;;;13.48;1.90;;;;;;;;;;5001884;28;20278;-77
2022/09/13 07:10:01;;;;;;;14.23;1.85;;;;;;;;;;5003323;28;20036;-77
2022/09/13 07:12:27;;;;;;;14.50;2.08;;;;;;;;;;5003376;28;20038;-77
2022/09/13 07:14:53;;;;;;;13.13;1.75;;;;;;;;;;5000861;28;20118;-77
2022/09/13 07:17:19;;;;;;;16.17;2.33;;;;;;;;;;5002995;28;20112;-77
2022/09/13 07:19:45;;;;;;;18.77;3.03;;;;;;;;;;5003795;28;20380;-77
2022/09/13 07:22:11;;;;;;;10.80;2.25;;;;;;;;;;5003209;28;20041;-77
2022/09/13 07:24:37;;;;;;;8.95;2.15;;;;;;;;;;5002173;28;20606;-77
2022/09/13 07:27:03;;;;;;;11.98;2.45;;;;;;;;;;4998764;28;20526;-77
2022/09/13 07:29:29;;;;;;;13.25;1.92;;;;;;;;;;5002125;28;20033;-77
2022/09/13 07:31:57;;;;;;;9.98;1.67;;;;;;;;;;5003874;28;20030;-77
2022/09/13 07:34:24;;;;;;;10.50;1.45;;;;;;;;;;5001524;28;20562;-77
2022/09/13 07:36:51;;;;;;;6.00;1.30;;;;;;;;;;5001800;28;20113;-77
2022/09/13 07:39:17;;;;;;;6.13;0.90;;;;;;;;;;5002478;28;20034;-77
2022/09/13 07:41:45;;;;;;;5.47;1.17;;;;;;;;;;5000050;28;20076;-78
2022/09/13 07:44:11;;;;;;;8.63;1.35;;;;;;;;;;5004496;28;20076;-77
2022/09/13 07:46:42;;;;;;;9.95;1.30;;;;;;;;;;5000734;28;20105;-77
2022/09/13 07:49:09;;;;;;;10.93;1.38;;;;;;;;;;5000698;28;20364;-77
2022/09/13 07:51:36;;;;;;;12.13;1.27;;;;;;;;;;4998559;28;20037;-77
2022/09/13 07:54:03;;;;;;;8.45;0.80;;;;;;;;;;5003809;28;20061;-77
2022/09/13 07:56:33;;;;;;;5.53;1.00;;;;;;;;;;4998903;28;20069;-77
2022/09/13 07:59:00;;;;;;;7.03;1.20;;;;;;;;;;5001777;28;20065;-77
2022/09/13 08:01:27;;;;;;;10.63;0.90;;;;;;;;;;4999717;28;20376;-77
2022/09/13 08:03:54;;;;;;;6.72;0.82;;;;;;;;;;5003563;28;20049;-77
2022/09/13 08:06:21;;;;;;;9.27;1.25;;;;;;;;;;4997493;28;20035;-77
2022/09/13 08:08:47;;;;;;;9.27;1.35;;;;;;;;;;5000478;28;20037;-77
2022/09/13 08:11:19;;;;;;;6.35;1.42;;;;;;;;;;4999724;28;20030;-77
2022/09/13 08:13:45;;;;;;;;;;;;;;;;;;4998921;28;20040;-77
2022/09/13 08:16:11;;;;;;;12.02;1.58;;;;;;;;;;4997709;28;19917;-77
2022/09/13 08:18:37;;;;;;;15.40;2.03;;;;;;;;;;4983938;28;20076;-77
2022/09/13 08:21:03;;;;;;;14.63;1.90;;;;;;;;;;5002173;28;20133;-77
2022/09/13 08:23:30;;;;;;;12.85;1.80;;;;;;;;;;5002934;28;20026;-77
2022/09/13 08:26:00;;;;;;;10.50;1.88;;;;;;;;;;5003358;28;20573;-77
2022/09/13 08:28:26;;;;;;;8.00;1.75;;;;;;;;;;4998283;28;20026;-77
2022/09/13 08:30:52;;;;;;;11.48;2.10;;;;;;;;;;5001064;28;20044;-77
2022/09/13 08:33:18;;;;;;;11.75;2.05;;;;;;;;;;5000658;28;20598;-77
2022/09/13 08:35:54;;;;;;;8.73;1.95;;;;;;;;;;5000470;28;20046;-77
2022/09/13 08:38:20;;;;;;;10.80;2.22;;;;;;;;;;4995055;28;20490;-77
2022/09/13 08:40:49;;;;;;;8.70;2.10;;;;;;;;;;5002998;28;20601;-77
2022/09/13 08:43:15;;;;;;;7.60;2.08;;;;;;;;;;4982170;28;20045;-77
2022/09/13 08:45:41;;;;;;;10.30;1.95;;;;;;;;;;4997004;28;20038;-78
2022/09/13 08:48:13;;;;;;;16.30;3.17;;;;;;;;;;4984547;28;20499;-77
2022/09/13 08:50:41;;;;;;;11.38;2.45;;;;;;;;;;5002518;28;20857;-77
2022/09/13 08:53:10;;;;;;;14.55;3.03;;;;;;;;;;4997425;28;20056;-77
2022/09/13 08:55:57;;;;;;;11.20;1.88;;;;;;;;;;5003016;28;20042;-77
2022/09/13 08:58:24;;;;;;;12.95;2.17;;;;;;;;;;4997911;28;20053;-77
2022/09/13 09:00:57;;;;;;;8.07;1.13;;;;;;;;;;5001245;28;20507;-75
2022/09/13 09:03:23;;;;;;;7.72;1.40;;;;;;;;;;5000015;28;20517;-77
2022/09/13 09:05:50;;;;;;;5.63;1.17;;;;;;;;;;4981950;28;20037;-75
2022/09/13 09:08:26;;;;;;;5.90;1.42;;;;;;;;;;5001312;28;20029;-78
2022/09/13 09:10:52;;;;;;;6.47;0.93;;;;;;;;;;4995980;28;20030;-78
2022/09/13 09:13:27;;;;;;;4.45;0.90;;;;;;;;;;4999089;28;20026;-78
2022/09/13 09:15:55;;;;;;;9.07;0.50;;;;;;;;;;4998305;28;20042;-77
2022/09/13 09:18:32;;;;;;;4.03;0.45;;;;;;;;;;4996078;28;20029;-78
2022/09/13 09:21:00;;;;;;;4.00;0.70;;;;;;;;;;4998129;28;20050;-77
2022/09/13 09:23:41;;;;;;;5.43;0.63;;;;;;;;;;4999280;28;20076;-77
2022/09/13 09:26:36;;;;;;;6.10;0.57;;;;;;;;;;4995590;28;20071;-77
2022/09/13 09:29:10;;;;;;;6.78;0.60;;;;;;;;;;4984002;28;20053;-78
2022/09/13 09:31:42;;;;;;;4.25;0.60;;;;;;;;;;4999636;28;20034;-77
2022/09/13 09:34:17;;;;;;;3.70;0.63;;;;;;;;;;4996081;28;20057;-78
2022/09/13 09:36:55;;;;;;;6.53;0.50;;;;;;;;;;5003005;28;20034;-78
2022/09/13 09:39:32;;;;;;;4.82;0.50;;;;;;;;;;4999433;28;20037;-76
2022/09/13 09:41:59;;;;;;;3.85;0.40;;;;;;;;;;5000683;28;20065;-77
2022/09/13 09:44:32;;;;;;;5.07;0.50;;;;;;;;;;4980441;28;20033;-78
2022/09/13 09:47:04;;;;;;;3.90;0.50;;;;;;;;;;4994384;28;20145;-78
2022/09/13 09:52:28;;;;;;;7.45;0.70;;;;;;;;;;4998524;28;20522;-76
2022/09/13 09:54:56;;;;;;;6.55;0.80;;;;;;;;;;4998443;28;20048;-78
2022/09/13 09:57:42;;;;;;;5.63;1.00;;;;;;;;;;5001953;28;20034;-78
2022/09/13 10:00:12;;;;;;;4.13;0.88;;;;;;;;;;4996776;28;20084;-76
2022/09/13 10:02:43;;;;;;;4.47;0.93;;;;;;;;;;4999390;28;20432;-76
2022/09/13 10:05:09;;;;;;;3.15;0.50;;;;;;;;;;5005084;28;20049;-75
2022/09/13 10:07:35;;;;;;;6.63;0.75;;;;;;;;;;5005339;28;20101;-76
2022/09/13 10:10:02;;;;;;;3.88;0.80;;;;;;;;;;4983597;28;20041;-76
2022/09/13 10:12:32;;;;;;;2.38;0.50;;;;;;;;;;5004923;28;20026;-76
2022/09/13 10:15:06;;;;;;;7.28;0.80;;;;;;;;;;4987532;28;20034;-76
2022/09/13 10:17:32;;;;;;;5.55;0.90;;;;;;;;;;5003289;28;20025;-76
2022/09/13 10:20:03;;;;;;;3.78;1.10;;;;;;;;;;5000398;28;20089;-76
2022/09/13 10:22:30;;;;;;;6.70;1.33;;;;;;;;;;5005908;28;20033;-76
2022/09/13 10:25:12;;;;;;;4.75;0.93;;;;;;;;;;5003304;28;20060;-76
2022/09/13 10:27:41;;;;;;;5.78;0.63;;;;;;;;;;5003337;28;20038;-75
2022/09/13 10:30:23;;;;;;;2.53;0.57;;;;;;;;;;5005863;28;20034;-76
2022/09/13 10:32:54;;;;;;;4.60;0.60;;;;;;;;;;5005856;28;20061;-76
2022/09/13 10:35:21;;;;;;;5.90;0.73;;;;;;;;;;5007672;28;20564;-76
2022/09/13 10:37:47;;;;;;;3.35;0.60;;;;;;;;;;5004346;28;20036;-78
2022/09/13 10:40:26;;;;;;;4.38;0.50;;;;;;;;;;5006641;28;20045;-75
2022/09/13 10:42:53;;;;;;;7.15;0.70;;;;;;;;;;5006611;28;20048;-78
2022/09/13 10:45:23;;;;;;;7.95;0.68;;;;;;;;;;5002396;28;20034;-78
2022/09/13 10:47:50;;;;;;;9.60;0.80;;;;;;;;;;5004487;28;20440;-76
2022/09/13 10:50:20;;;;;;;5.32;0.93;;;;;;;;;;5004882;28;20037;-78
2022/09/13 10:52:51;;;;;;;7.65;0.80;;;;;;;;;;5004978;28;20364;-78
2022/09/13 10:55:17;;;;;;;5.50;0.80;;;;;;;;;;5007719;28;20030;-78
2022/09/13 10:57:43;;;;;;;5.95;0.77;;;;;;;;;;5006327;28;20034;-78
2022/09/13 11:00:12;;;;;;;2.95;0.50;;;;;;;;;;5008679;28;20472;-78
2022/09/13 11:02:41;;;;;;;4.20;0.50;;;;;;;;;;4981963;28;20089;-78
2022/09/13 11:05:07;;;;;;;2.80;0.63;;;;;;;;;;4990768;28;20587;-78
2022/09/13 11:07:59;;;;;;;1.73;0.45;;;;;;;;;;4985500;28;20515;-78
2022/09/13 11:10:55;;;;;;;3.38;0.55;;;;;;;;;;5000989;28;20416;-78
2022/09/13 11:13:24;;;;;;;6.03;0.60;;;;;;;;;;4987760;28;20484;-77
2022/09/13 11:15:50;;;;;;;3.97;0.95;;;;;;;;;;5003288;28;20041;-77
2022/09/13 11:18:16;;;;;;;2.42;0.63;;;;;;;;;;5001798;28;20033;-77
2022/09/13 11:20:47;;;;;;;1.52;0.50;;;;;;;;;;5003079;28;20387;-77
2022/09/13 11:23:23;;;;;;;5.32;0.50;;;;;;;;;;4998646;28;20042;-77
2022/09/13 11:25:49;;;;;;;4.22;0.70;;;;;;;;;;5001889;28;20033;-77
2022/09/13 11:28:15;;;;;;;2.80;0.52;;;;;;;;;;4996674;28;20069;-77
2022/09/13 11:30:56;;;;;;;6.20;0.77;;;;;;;;;;5003785;28;20121;-77
2022/09/13 11:33:27;;;;;;;5.67;0.63;;;;;;;;;;5002638;28;20052;-77
2022/09/13 11:35:53;;;;;;;3.97;0.75;;;;;;;;;;5002410;28;20038;-77
2022/09/13 11:38:25;;;;;;;5.00;0.80;;;;;;;;;;5000168;28;20033;-76
2022/09/13 11:41:14;;;;;;;5.30;0.93;;;;;;;;;;4998363;28;20041;-77
2022/09/13 11:43:50;;;;;;;4.75;0.60;;;;;;;;;;4955876;28;20121;-77
2022/09/13 11:46:35;;;;;;;3.58;0.50;;;;;;;;;;5002328;28;20068;-77
2022/09/13 11:49:01;;;;;;;3.55;0.65;;;;;;;;;;4998809;28;20135;-77
2022/09/13 11:51:27;;;;;;;4.18;0.68;;;;;;;;;;4998048;28;20034;-77
2022/09/13 11:53:59;;;;;;;3.13;0.68;;;;;;;;;;5002126;28;20573;-77
2022/09/13 11:56:44;;;;;;;5.65;0.68;;;;;;;;;;5002658;28;20053;-77
2022/09/13 11:59:28;;;;;;;2.10;0.50;;;;;;;;;;5003147;28;20360;-77
2022/09/13 12:01:57;;;;;;;3.33;0.50;;;;;;;;;;5000084;28;20404;-77
2022/09/13 12:04:28;;;;;;;3.38;0.68;;;;;;;;;;5000803;28;20041;-77
2022/09/13 12:06:57;;;;;;;8.23;0.63;;;;;;;;;;5002011;28;20422;-77
2022/09/13 12:09:43;;;;;;;3.30;0.50;;;;;;;;;;4997037;28;20153;-77
2022/09/13 12:12:11;;;;;;;6.20;1.05;;;;;;;;;;4982823;28;20075;-77
2022/09/13 12:14:50;;;;;;;3.30;0.60;;;;;;;;;;4984340;28;20767;-77
2022/09/13 12:17:28;;;;;;;3.72;0.60;;;;;;;;;;5002350;28;20887;-77
2022/09/13 12:19:56;;;;;;;5.15;0.60;;;;;;;;;;4997795;28;20042;-77
2022/09/13 12:22:23;;;;;;;4.55;0.57;;;;;;;;;;5002633;28;20053;-77
2022/09/13 12:24:59;;;;;;;3.90;0.88;;;;;;;;;;5001129;28;20044;-77
2022/09/13 12:27:36;;;;;;;3.08;0.60;;;;;;;;;;4997486;28;20026;-77
2022/09/13 12:30:09;;;;;;;4.70;0.70;;;;;;;;;;4995419;28;20042;-77
2022/09/13 12:32:37;;;;;;;4.28;0.65;;;;;;;;;;5000512;28;20026;-77
2022/09/13 12:35:03;;;;;;;3.58;0.60;;;;;;;;;;4999263;28;20037;-77
2022/09/13 12:37:32;;;;;;;6.15;0.80;;;;;;;;;;5001510;28;20030;-77
2022/09/13 12:40:02;;;;;;;12.63;0.90;;;;;;;;;;4995341;28;20062;-77
2022/09/13 12:42:33;;;;;;;5.00;0.75;;;;;;;;;;4999944;28;20037;-77
2022/09/13 12:45:02;;;;;;;4.82;0.90;;;;;;;;;;5002706;28;20377;-77
2022/09/13 12:47:41;;;;;;;5.05;1.20;;;;;;;;;;4982023;28;20050;-77
2022/09/13 12:50:10;;;;;;;4.97;0.55;;;;;;;;;;4979456;28;20080;-77
2022/09/13 12:52:41;;;;;;;3.80;0.60;;;;;;;;;;4979805;28;20027;-77
2022/09/13 12:55:10;;;;;;;3.13;1.02;;;;;;;;;;4979518;28;20034;-77
2022/09/13 12:57:39;;;;;;;3.03;0.77;;;;;;;;;;4981245;28;20050;-77
2022/09/13 13:00:08;;;;;;;2.97;0.75;;;;;;;;;;4981270;28;20500;-77
2022/09/13 13:02:36;;;;;;;3.10;0.47;;;;;;;;;;4980202;28;20476;-77
2022/09/13 13:05:15;;;;;;;2.10;0.50;;;;;;;;;;4983800;28;20077;-77
2022/09/13 13:07:45;;;;;;;3.72;0.90;;;;;;;;;;4981279;28;20038;-77
2022/09/13 13:10:25;;;;;;;3.00;0.55;;;;;;;;;;4978089;28;20030;-77
2022/09/13 13:12:51;;;;;;;2.17;0.60;;;;;;;;;;4983239;28;20060;-77
2022/09/13 13:15:20;;;;;;;1.98;0.60;;;;;;;;;;4980562;28;20470;-77
2022/09/13 13:17:48;;;;;;;3.20;0.77;;;;;;;;;;4980778;28;20481;-77
2022/09/13 13:20:32;;;;;;;4.10;0.80;;;;;;;;;;4982757;28;20049;-77
2022/09/13 13:23:25;;;;;;;2.63;0.80;;;;;;;;;;4981262;28;20057;-77
2022/09/13 13:25:59;;;;;;;2.03;0.70;;;;;;;;;;4963942;28;20052;-77
2022/09/13 13:28:46;;;;;;;2.63;0.60;;;;;;;;;;4978345;28;20156;-77
2022/09/13 13:31:22;;;;;;;3.05;0.63;;;;;;;;;;4982431;28;20053;-77
2022/09/13 13:33:52;;;;;;;1.27;0.50;;;;;;;;;;4980214;28;20162;-77
2022/09/13 13:36:23;;;;;;;2.92;0.70;;;;;;;;;;4982125;28;20030;-77
2022/09/13 13:38:50;;;;;;;4.30;0.70;;;;;;;;;;4978296;28;20030;-77
2022/09/13 13:41:37;;;;;;;3.05;0.60;;;;;;;;;;4981347;28;20459;-77
2022/09/13 13:44:30;;;;;;;4.07;0.50;;;;;;;;;;4980997;28;20109;-77
2022/09/13 13:47:08;;;;;;;2.25;0.60;;;;;;;;;;4966330;28;20050;-77
2022/09/13 13:49:34;;;;;;;1.90;0.60;;;;;;;;;;4998106;28;20038;-77
2022/09/13 13:52:07;;;;;;;1.95;0.60;;;;;;;;;;5000570;28;20468;-77
2022/09/13 13:54:53;;;;;;;5.07;0.63;;;;;;;;;;4999902;28;20029;-77
2022/09/13 13:57:26;;;;;;;4.20;0.63;;;;;;;;;;4947784;28;20038;-77
2022/09/13 14:00:07;;;;;;;2.47;0.50;;;;;;;;;;5000718;28;20529;-77
2022/09/13 14:02:45;;;;;;;5.03;0.80;;;;;;;;;;4995467;28;20033;-77
2022/09/13 14:05:31;;;;;;;3.90;0.80;;;;;;;;;;5001642;28;20042;-77
2022/09/13 14:08:00;;;;;;;2.72;0.60;;;;;;;;;;4998821;28;20041;-77
2022/09/13 14:10:31;;;;;;;2.63;0.70;;;;;;;;;;5000286;28;20152;-77
2022/09/13 14:13:16;;;;;;;3.47;0.70;;;;;;;;;;5000795;28;20044;-77
2022/09/13 14:16:14;;;;;;;3.80;0.63;;;;;;;;;;4998348;28;20406;-77
2022/09/13 14:18:47;;;;;;;2.70;0.70;;;;;;;;;;4947616;28;20042;-77
2022/09/13 14:21:21;;;;;;;6.97;0.80;;;;;;;;;;4999884;28;20064;-77
2022/09/13 14:23:47;;;;;;;6.72;0.90;;;;;;;;;;4975345;28;20558;-77
2022/09/13 14:26:13;;;;;;;3.45;1.00;;;;;;;;;;4996708;28;20034;-77
2022/09/13 14:28:40;;;;;;;4.50;0.98;;;;;;;;;;4997877;28;20113;-77
2022/09/13 14:31:06;;;;;;;6.05;1.33;;;;;;;;;;4983474;28;20574;-77
2022/09/13 14:33:33;;;;;;;2.58;0.75;;;;;;;;;;5000428;28;20034;-77
2022/09/13 14:36:19;;;;;;;5.20;1.05;;;;;;;;;;5001293;28;20426;-77
2022/09/13 14:38:56;;;;;;;2.83;0.82;;;;;;;;;;4997208;28;20042;-77
2022/09/13 14:41:29;;;;;;;2.97;0.80;;;;;;;;;;4997921;28;20465;-77
2022/09/13 14:44:13;;;;;;;3.65;0.80;;;;;;;;;;4995160;28;20030;-77
2022/09/13 14:46:40;;;;;;;6.05;0.90;;;;;;;;;;4998420;28;20060;-77
2022/09/13 14:49:08;;;;;;;4.00;0.80;;;;;;;;;;5000690;28;20045;-77
2022/09/13 14:51:49;;;;;;;3.97;0.65;;;;;;;;;;5002006;28;20052;-77
2022/09/13 14:54:18;;;;;;;3.33;1.08;;;;;;;;;;5001962;28;20733;-77
2022/09/13 14:56:50;;;;;;;3.92;0.90;;;;;;;;;;5002875;28;20432;-77
2022/09/13 14:59:23;;;;;;;4.63;0.85;;;;;;;;;;5005529;28;20918;-77
2022/09/13 15:01:49;;;;;;;3.55;0.98;;;;;;;;;;5004208;28;20033;-77
2022/09/13 15:04:16;;;;;;;3.30;0.65;;;;;;;;;;5003433;28;20387;-77
2022/09/13 15:06:43;;;;;;;2.35;0.52;;;;;;;;;;5002743;28;20061;-77